createdAt,value
2023-05-06T00:00:03.934Z,87.90
2023-05-06T00:01:04.824Z,87.49
2023-05-06T00:02:05.713Z,87.49
2023-05-06T00:03:06.642Z,87.59
2023-05-06T00:04:07.797Z,87.70
2023-05-06T00:05:08.521Z,87.59
2023-05-06T00:06:09.068Z,87.90
2023-05-06T00:07:09.950Z,88.45
2023-05-06T00:08:10.819Z,88.14
2023-05-06T00:09:11.726Z,88.35
2023-05-06T00:10:12.640Z,88.04
2023-05-06T00:11:13.490Z,88.14
2023-05-06T00:12:14.369Z,87.94
2023-05-06T00:13:15.425Z,88.24
2023-05-06T00:14:15.841Z,88.35
2023-05-06T00:15:16.717Z,88.04
2023-05-06T00:16:17.619Z,88.14
2023-05-06T00:17:18.471Z,88.24
2023-05-06T00:18:19.381Z,88.90
2023-05-06T00:19:20.364Z,88.79
2023-05-06T00:20:21.218Z,88.59
2023-05-06T00:21:22.099Z,89.72
2023-05-06T00:22:22.985Z,89.00
2023-05-06T00:23:23.858Z,88.79
2023-05-06T00:24:24.746Z,88.59
2023-05-06T00:25:25.632Z,88.84
2023-05-06T00:26:26.492Z,89.04
2023-05-06T00:27:27.376Z,89.25
2023-05-06T00:28:28.269Z,89.04
2023-05-06T00:29:29.154Z,88.94
2023-05-06T00:30:30.062Z,89.25
2023-05-06T00:31:30.968Z,89.04
2023-05-06T00:32:31.821Z,88.94
2023-05-06T00:33:32.705Z,88.74
2023-05-06T00:34:33.607Z,89.25
2023-05-06T00:35:34.467Z,89.04
2023-05-06T00:36:35.356Z,88.64
2023-05-06T00:37:36.286Z,89.15
2023-05-06T00:38:37.149Z,88.84
2023-05-06T00:39:38.027Z,89.04
2023-05-06T00:40:38.907Z,88.94
2023-05-06T00:41:39.792Z,88.68
2023-05-06T00:42:40.680Z,88.68
2023-05-06T00:43:41.563Z,88.57
2023-05-06T00:44:42.435Z,88.88
2023-05-06T00:45:43.356Z,88.98
2023-05-06T00:46:44.318Z,89.09
2023-05-06T00:47:45.223Z,89.09
2023-05-06T00:48:46.080Z,89.09
2023-05-06T00:49:47.051Z,89.29
2023-05-06T00:50:47.889Z,89.18
2023-05-06T00:51:48.786Z,89.39
2023-05-06T00:52:49.679Z,89.09
2023-05-06T00:53:50.561Z,89.64
2023-05-06T00:54:51.442Z,89.12
2023-05-06T00:55:52.393Z,89.33
2023-05-06T00:56:53.243Z,89.33
2023-05-06T00:57:54.114Z,89.33
2023-05-06T00:58:54.991Z,89.43
2023-05-06T00:59:55.896Z,89.12
2023-05-06T01:00:56.817Z,89.03
2023-05-06T01:01:57.695Z,89.12
2023-05-06T01:02:58.779Z,89.33
2023-05-06T01:03:59.343Z,89.43
2023-05-06T01:04:59.880Z,89.98
2023-05-06T01:06:00.751Z,89.89
2023-05-06T01:07:01.667Z,89.58
2023-05-06T01:08:02.520Z,89.98
2023-05-06T01:09:03.407Z,89.78
2023-05-06T01:10:04.279Z,89.98
2023-05-06T01:11:05.169Z,90.30
2023-05-06T01:12:06.054Z,89.98
2023-05-06T01:13:06.999Z,90.19
2023-05-06T01:14:07.896Z,90.39
2023-05-06T01:15:09.212Z,90.19
2023-05-06T01:16:09.705Z,90.30
2023-05-06T01:17:10.741Z,89.89
2023-05-06T01:18:11.121Z,90.39
2023-05-06T01:19:12.032Z,90.39
2023-05-06T01:20:12.970Z,90.60
2023-05-06T01:21:13.896Z,90.60
2023-05-06T01:22:14.788Z,90.75
2023-05-06T01:23:15.682Z,91.16
2023-05-06T01:24:16.585Z,92.38
2023-05-06T01:25:17.486Z,91.77
2023-05-06T01:26:18.406Z,91.77
2023-05-06T01:27:19.290Z,91.67
2023-05-06T01:28:20.171Z,91.56
2023-05-06T01:29:21.056Z,91.26
2023-05-06T01:30:21.952Z,91.46
2023-05-06T01:31:22.896Z,91.97
2023-05-06T01:32:23.828Z,92.08
2023-05-06T01:33:24.756Z,91.97
2023-05-06T01:34:25.657Z,91.87
2023-05-06T01:35:26.638Z,91.87
2023-05-06T01:36:27.449Z,91.77
2023-05-06T01:37:28.328Z,91.67
2023-05-06T01:38:28.976Z,92.18
2023-05-06T01:39:29.855Z,92.59
2023-05-06T01:40:30.736Z,92.28
2023-05-06T01:41:31.612Z,91.77
2023-05-06T01:42:32.506Z,91.87
2023-05-06T01:43:33.375Z,92.08
2023-05-06T01:44:34.310Z,92.28
2023-05-06T01:45:35.168Z,91.97
2023-05-06T01:46:36.071Z,91.67
2023-05-06T01:47:36.993Z,91.97
2023-05-06T01:48:37.850Z,92.59
2023-05-06T01:49:38.756Z,92.28
2023-05-06T01:50:39.724Z,92.49
2023-05-06T01:51:40.546Z,92.38
2023-05-06T01:52:41.418Z,92.79
2023-05-06T01:53:42.315Z,92.59
2023-05-06T01:54:43.280Z,92.90
2023-05-06T01:55:44.194Z,92.90
2023-05-06T01:56:45.080Z,92.90
2023-05-06T01:57:45.951Z,93.30
2023-05-06T01:58:46.822Z,93.71
2023-05-06T01:59:47.703Z,93.41
2023-05-06T02:00:48.582Z,93.30
2023-05-06T02:01:49.599Z,93.20
2023-05-06T02:02:50.486Z,93.00
2023-05-06T02:03:51.464Z,93.00
2023-05-06T02:04:51.851Z,93.20
2023-05-06T02:05:52.758Z,93.55
2023-05-06T02:06:53.339Z,93.66
2023-05-06T02:07:54.217Z,93.35
2023-05-06T02:08:55.103Z,93.55
2023-05-06T02:09:55.978Z,93.66
2023-05-06T02:10:56.862Z,93.45
2023-05-06T02:11:57.749Z,93.25
2023-05-06T02:12:58.698Z,93.25
2023-05-06T02:13:59.586Z,93.10
2023-05-06T02:15:00.466Z,92.90
2023-05-06T02:16:01.349Z,93.04
2023-05-06T02:17:02.234Z,92.79
2023-05-06T02:18:03.133Z,92.49
2023-05-06T02:19:03.993Z,92.53
2023-05-06T02:20:04.866Z,92.43
2023-05-06T02:21:05.849Z,92.63
2023-05-06T02:22:06.673Z,92.83
2023-05-06T02:23:07.556Z,93.04
2023-05-06T02:24:08.439Z,92.83
2023-05-06T02:25:09.615Z,92.63
2023-05-06T02:26:10.180Z,92.74
2023-05-06T02:27:11.067Z,92.83
2023-05-06T02:28:11.931Z,93.04
2023-05-06T02:29:12.814Z,93.45
2023-05-06T02:30:13.687Z,93.35
2023-05-06T02:31:14.642Z,93.15
2023-05-06T02:32:15.527Z,92.63
2023-05-06T02:33:16.408Z,92.83
2023-05-06T02:34:17.361Z,93.04
2023-05-06T02:35:18.191Z,93.25
2023-05-06T02:36:19.178Z,93.15
2023-05-06T02:37:19.989Z,93.25
2023-05-06T02:38:20.879Z,93.25
2023-05-06T02:39:21.757Z,93.66
2023-05-06T02:40:22.690Z,93.45
2023-05-06T02:41:23.540Z,93.55
2023-05-06T02:42:24.477Z,93.76
2023-05-06T02:43:25.340Z,93.96
2023-05-06T02:44:26.198Z,93.76
2023-05-06T02:45:27.102Z,93.76
2023-05-06T02:46:27.967Z,94.37
2023-05-06T02:47:28.887Z,94.27
2023-05-06T02:48:29.761Z,94.07
2023-05-06T02:49:30.634Z,94.07
2023-05-06T02:50:31.532Z,94.68
2023-05-06T02:51:32.428Z,93.96
2023-05-06T02:52:33.287Z,93.55
2023-05-06T02:53:34.194Z,93.76
2023-05-06T02:54:35.054Z,93.86
2023-05-06T02:55:35.938Z,93.66
2023-05-06T02:56:36.825Z,93.96
2023-05-06T02:57:37.691Z,93.76
2023-05-06T02:58:38.581Z,93.55
2023-05-06T02:59:39.457Z,93.66
2023-05-06T03:00:40.354Z,93.86
2023-05-06T03:01:41.281Z,93.66
2023-05-06T03:02:42.153Z,93.76
2023-05-06T03:03:43.007Z,93.66
2023-05-06T03:04:43.916Z,93.76
2023-05-06T03:05:44.786Z,93.55
2023-05-06T03:06:45.759Z,93.45
2023-05-06T03:07:46.587Z,93.45
2023-05-06T03:08:47.526Z,93.35
2023-05-06T03:09:48.394Z,93.45
2023-05-06T03:10:49.255Z,93.25
2023-05-06T03:11:50.141Z,93.04
2023-05-06T03:12:51.077Z,93.25
2023-05-06T03:13:51.943Z,93.15
2023-05-06T03:14:52.826Z,93.04
2023-05-06T03:15:53.738Z,93.66
2023-05-06T03:16:54.619Z,93.76
2023-05-06T03:17:55.642Z,93.35
2023-05-06T03:18:56.052Z,93.25
2023-05-06T03:19:56.936Z,93.15
2023-05-06T03:20:57.842Z,93.25
2023-05-06T03:21:58.803Z,93.08
2023-05-06T03:22:59.707Z,93.08
2023-05-06T03:24:00.558Z,93.08
2023-05-06T03:25:01.435Z,93.19
2023-05-06T03:26:02.321Z,93.19
2023-05-06T03:27:03.209Z,93.08
2023-05-06T03:28:04.086Z,93.08
2023-05-06T03:29:04.970Z,93.70
2023-05-06T03:30:05.856Z,93.80
2023-05-06T03:31:06.759Z,94.21
2023-05-06T03:32:07.679Z,93.85
2023-05-06T03:33:08.560Z,93.49
2023-05-06T03:34:09.367Z,93.85
2023-05-06T03:35:10.467Z,93.64
2023-05-06T03:36:10.959Z,93.95
2023-05-06T03:37:11.903Z,94.15
2023-05-06T03:38:12.666Z,94.15
2023-05-06T03:39:13.512Z,94.52
2023-05-06T03:40:14.313Z,94.77
2023-05-06T03:41:15.191Z,94.87
2023-05-06T03:42:16.118Z,94.05
2023-05-06T03:43:16.977Z,94.01
2023-05-06T03:44:17.816Z,94.56
2023-05-06T03:45:18.650Z,94.77
2023-05-06T03:46:19.577Z,94.46
2023-05-06T03:47:20.394Z,94.77
2023-05-06T03:48:21.207Z,94.98
2023-05-06T03:49:22.037Z,94.98
2023-05-06T03:50:22.875Z,94.98
2023-05-06T03:51:23.702Z,94.77
2023-05-06T03:52:24.609Z,94.46
2023-05-06T03:53:25.368Z,94.36
2023-05-06T03:54:26.192Z,94.67
2023-05-06T03:55:27.024Z,94.87
2023-05-06T03:56:27.880Z,94.56
2023-05-06T03:57:28.688Z,94.46
2023-05-06T03:58:29.526Z,94.36
2023-05-06T03:59:30.337Z,94.15
2023-05-06T04:00:31.234Z,94.26
2023-05-06T04:01:32.029Z,94.05
2023-05-06T04:02:32.922Z,94.36
2023-05-06T04:03:33.827Z,94.36
2023-05-06T04:04:34.672Z,94.46
2023-05-06T04:05:35.512Z,94.36
2023-05-06T04:06:36.345Z,94.56
2023-05-06T04:07:37.283Z,94.36
2023-05-06T04:08:38.049Z,94.36
2023-05-06T04:09:38.962Z,94.15
2023-05-06T04:10:39.747Z,94.36
2023-05-06T04:11:40.564Z,94.46
2023-05-06T04:12:41.435Z,94.36
2023-05-06T04:13:42.252Z,94.46
2023-05-06T04:14:43.061Z,94.15
2023-05-06T04:15:43.887Z,94.26
2023-05-06T04:16:44.749Z,94.36
2023-05-06T04:17:45.589Z,94.26
2023-05-06T04:18:46.380Z,94.26
2023-05-06T04:19:47.277Z,94.15
2023-05-06T04:20:48.058Z,94.36
2023-05-06T04:21:48.883Z,94.56
2023-05-06T04:22:49.829Z,94.98
2023-05-06T04:23:50.624Z,94.56
2023-05-06T04:24:51.429Z,94.46
2023-05-06T04:25:52.254Z,94.36
2023-05-06T04:26:53.083Z,94.15
2023-05-06T04:27:53.943Z,94.36
2023-05-06T04:28:54.747Z,94.87
2023-05-06T04:29:55.572Z,94.87
2023-05-06T04:30:56.407Z,94.77
2023-05-06T04:31:57.268Z,94.77
2023-05-06T04:32:57.975Z,94.87
2023-05-06T04:33:58.771Z,94.67
2023-05-06T04:34:59.598Z,94.98
2023-05-06T04:36:00.420Z,95.18
2023-05-06T04:37:01.254Z,95.39
2023-05-06T04:38:02.233Z,94.98
2023-05-06T04:39:03.007Z,94.87
2023-05-06T04:40:03.833Z,94.77
2023-05-06T04:41:04.718Z,94.87
2023-05-06T04:42:05.505Z,95.07
2023-05-06T04:43:06.339Z,95.18
2023-05-06T04:44:07.185Z,95.39
2023-05-06T04:45:08.129Z,95.28
2023-05-06T04:46:08.649Z,95.28
2023-05-06T04:47:09.483Z,95.43
2023-05-06T04:48:10.335Z,95.64
2023-05-06T04:49:12.531Z,95.64
2023-05-06T04:50:12.013Z,95.64
2023-05-06T04:51:12.816Z,95.53
2023-05-06T04:52:13.662Z,95.32
2023-05-06T04:53:14.577Z,95.23
2023-05-06T04:54:15.391Z,95.84
2023-05-06T04:55:16.191Z,95.53
2023-05-06T04:56:17.022Z,95.32
2023-05-06T04:57:17.841Z,95.32
2023-05-06T04:58:18.673Z,95.43
2023-05-06T04:59:19.491Z,95.53
2023-05-06T05:00:20.332Z,95.39
2023-05-06T05:01:21.217Z,95.28
2023-05-06T05:02:22.118Z,95.28
2023-05-06T05:03:23.084Z,95.28
2023-05-06T05:04:23.975Z,95.07
2023-05-06T05:05:24.759Z,95.28
2023-05-06T05:06:25.596Z,95.18
2023-05-06T05:07:26.417Z,95.28
2023-05-06T05:08:27.325Z,95.39
2023-05-06T05:09:28.091Z,95.14
2023-05-06T05:10:28.929Z,95.44
2023-05-06T05:11:29.760Z,95.34
2023-05-06T05:12:30.595Z,95.03
2023-05-06T05:13:31.418Z,95.14
2023-05-06T05:14:32.243Z,94.62
2023-05-06T05:15:33.119Z,94.58
2023-05-06T05:16:33.962Z,94.48
2023-05-06T05:17:34.757Z,94.68
2023-05-06T05:18:35.589Z,94.78
2023-05-06T05:19:36.386Z,94.68
2023-05-06T05:20:37.244Z,94.37
2023-05-06T05:21:38.059Z,94.48
2023-05-06T05:22:38.884Z,94.07
2023-05-06T05:23:39.827Z,93.92
2023-05-06T05:24:40.653Z,93.82
2023-05-06T05:25:41.456Z,93.71
2023-05-06T05:26:42.288Z,93.41
2023-05-06T05:27:43.160Z,93.82
2023-05-06T05:28:43.952Z,93.92
2023-05-06T05:29:44.785Z,93.51
2023-05-06T05:30:45.665Z,93.41
2023-05-06T05:31:46.558Z,93.10
2023-05-06T05:32:47.451Z,93.20
2023-05-06T05:33:48.352Z,93.51
2023-05-06T05:34:49.151Z,93.37
2023-05-06T05:35:49.984Z,93.26
2023-05-06T05:36:50.834Z,93.37
2023-05-06T05:37:51.659Z,93.37
2023-05-06T05:38:52.597Z,92.96
2023-05-06T05:39:53.391Z,92.85
2023-05-06T05:40:54.206Z,92.65
2023-05-06T05:41:55.038Z,92.65
2023-05-06T05:42:55.864Z,92.75
2023-05-06T05:43:56.700Z,92.91
2023-05-06T05:44:57.516Z,92.81
2023-05-06T05:45:58.351Z,92.91
2023-05-06T05:46:59.196Z,93.12
2023-05-06T05:48:00.023Z,93.22
2023-05-06T05:49:00.891Z,93.52
2023-05-06T05:50:01.717Z,93.01
2023-05-06T05:51:02.522Z,93.22
2023-05-06T05:52:03.389Z,93.22
2023-05-06T05:53:04.179Z,92.71
2023-05-06T05:54:05.024Z,92.50
2023-05-06T05:55:05.859Z,92.40
2023-05-06T05:56:06.667Z,92.46
2023-05-06T05:57:07.516Z,92.15
2023-05-06T05:58:08.330Z,92.15
2023-05-06T05:59:09.161Z,92.15
2023-05-06T06:00:11.607Z,92.36
2023-05-06T06:01:10.701Z,92.15
2023-05-06T06:02:11.520Z,92.36
2023-05-06T06:03:12.517Z,92.25
2023-05-06T06:04:12.946Z,92.25
2023-05-06T06:05:13.756Z,91.95
2023-05-06T06:06:14.568Z,92.32
2023-05-06T06:07:15.410Z,92.01
2023-05-06T06:08:16.263Z,91.60
2023-05-06T06:09:17.209Z,91.60
2023-05-06T06:10:17.979Z,91.46
2023-05-06T06:11:18.820Z,91.66
2023-05-06T06:12:19.660Z,91.25
2023-05-06T06:13:20.721Z,91.20
2023-05-06T06:14:21.071Z,90.90
2023-05-06T06:15:21.883Z,90.64
2023-05-06T06:16:22.764Z,90.59
2023-05-06T06:17:23.681Z,90.19
2023-05-06T06:18:24.454Z,90.19
2023-05-06T06:19:25.282Z,90.39
2023-05-06T06:20:26.121Z,89.98
2023-05-06T06:21:26.942Z,89.98
2023-05-06T06:22:27.774Z,89.98
2023-05-06T06:23:28.588Z,90.08
2023-05-06T06:24:29.623Z,90.08
2023-05-06T06:25:30.384Z,89.84
2023-05-06T06:26:31.241Z,89.53
2023-05-06T06:27:32.060Z,89.12
2023-05-06T06:28:32.873Z,89.18
2023-05-06T06:29:33.689Z,89.18
2023-05-06T06:30:34.533Z,89.08
2023-05-06T06:31:35.534Z,88.78
2023-05-06T06:32:36.069Z,88.73
2023-05-06T06:33:36.884Z,88.84
2023-05-06T06:34:37.726Z,88.84
2023-05-06T06:35:38.545Z,88.93
2023-05-06T06:36:39.367Z,87.77
2023-05-06T06:37:40.192Z,86.86
2023-05-06T06:38:41.009Z,86.76
2023-05-06T06:39:41.868Z,86.96
2023-05-06T06:40:42.735Z,86.92
2023-05-06T06:41:43.526Z,86.71
2023-05-06T06:42:44.354Z,86.41
2023-05-06T06:43:45.184Z,86.61
2023-05-06T06:44:46.027Z,87.02
2023-05-06T06:45:46.904Z,87.63
2023-05-06T06:46:47.700Z,87.84
2023-05-06T06:47:48.562Z,86.51
2023-05-06T06:48:49.451Z,86.71
2023-05-06T06:49:50.235Z,87.23
2023-05-06T06:50:51.053Z,87.84
2023-05-06T06:51:51.896Z,87.49
2023-05-06T06:52:52.706Z,87.63
2023-05-06T06:53:53.536Z,87.94
2023-05-06T06:54:54.385Z,88.34
2023-05-06T06:55:55.194Z,87.73
2023-05-06T06:56:56.022Z,88.04
2023-05-06T06:57:56.884Z,88.14
2023-05-06T06:58:57.713Z,88.34
2023-05-06T06:59:58.545Z,87.43
2023-05-06T07:00:59.409Z,87.12
2023-05-06T07:02:00.200Z,87.23
2023-05-06T07:03:01.118Z,87.73
2023-05-06T07:04:01.935Z,87.84
2023-05-06T07:05:02.741Z,87.43
2023-05-06T07:06:03.598Z,87.53
2023-05-06T07:07:04.398Z,86.55
2023-05-06T07:08:05.228Z,87.26
2023-05-06T07:09:06.079Z,87.88
2023-05-06T07:10:06.997Z,88.28
2023-05-06T07:11:07.793Z,87.77
2023-05-06T07:12:08.600Z,86.04
2023-05-06T07:13:09.464Z,86.96
2023-05-06T07:14:10.294Z,87.16
2023-05-06T07:15:11.348Z,86.04
2023-05-06T07:16:11.804Z,85.74
2023-05-06T07:17:12.725Z,85.84
2023-05-06T07:18:13.677Z,86.04
2023-05-06T07:19:14.509Z,86.04
2023-05-06T07:20:15.339Z,85.84
2023-05-06T07:21:16.157Z,86.15
2023-05-06T07:22:17.005Z,86.30
2023-05-06T07:23:17.833Z,86.30
2023-05-06T07:24:18.653Z,86.10
2023-05-06T07:25:19.630Z,85.75
2023-05-06T07:26:20.420Z,84.97
2023-05-06T07:27:21.242Z,82.03
2023-05-06T07:28:22.071Z,79.27
2023-05-06T07:29:22.900Z,78.19
2023-05-06T07:30:23.749Z,77.59
2023-05-06T07:31:24.574Z,78.13
2023-05-06T07:32:25.433Z,77.97
2023-05-06T07:33:26.251Z,77.66
2023-05-06T07:34:27.058Z,78.61
2023-05-06T07:35:27.893Z,78.71
2023-05-06T07:36:28.783Z,78.75
2023-05-06T07:37:29.568Z,79.25
2023-05-06T07:38:30.397Z,79.66
2023-05-06T07:39:31.214Z,80.07
2023-05-06T07:40:32.134Z,80.07
2023-05-06T07:41:32.928Z,79.90
2023-05-06T07:42:33.741Z,80.41
2023-05-06T07:43:34.571Z,82.45
2023-05-06T07:44:35.401Z,82.40
2023-05-06T07:45:36.300Z,83.36
2023-05-06T07:46:37.158Z,83.15
2023-05-06T07:47:38.007Z,83.06
2023-05-06T07:48:38.818Z,82.75
2023-05-06T07:49:39.656Z,81.46
2023-05-06T07:50:40.490Z,81.77
2023-05-06T07:51:41.327Z,82.07
2023-05-06T07:52:42.159Z,82.59
2023-05-06T07:53:42.968Z,82.99
2023-05-06T07:54:43.817Z,83.20
2023-05-06T07:55:44.724Z,83.40
2023-05-06T07:56:45.486Z,83.70
2023-05-06T07:57:46.316Z,83.91
2023-05-06T07:58:47.175Z,83.81
2023-05-06T07:59:47.986Z,83.70
2023-05-06T08:00:48.855Z,83.40
2023-05-06T08:01:49.645Z,83.60
2023-05-06T08:02:50.548Z,83.09
2023-05-06T08:03:51.408Z,83.09
2023-05-06T08:04:52.305Z,83.20
2023-05-06T08:05:53.190Z,82.95
2023-05-06T08:06:54.015Z,82.51
2023-05-06T08:07:54.842Z,80.66
2023-05-06T08:08:55.671Z,79.58
2023-05-06T08:09:56.537Z,79.10
2023-05-06T08:10:57.421Z,77.95
2023-05-06T08:11:58.219Z,76.32
2023-05-06T08:12:59.053Z,75.21
2023-05-06T08:13:59.856Z,74.26
2023-05-06T08:15:00.696Z,73.96
2023-05-06T08:16:01.561Z,74.16
2023-05-06T08:17:02.360Z,73.86
2023-05-06T08:18:13.777Z,70.25
2023-05-06T08:19:04.910Z,72.11
2023-05-06T08:20:04.782Z,72.81
2023-05-06T08:21:05.568Z,73.46
2023-05-06T08:22:06.406Z,73.96
2023-05-06T08:23:07.228Z,74.27
2023-05-06T08:24:08.062Z,73.29
2023-05-06T08:25:09.068Z,72.88
2023-05-06T08:26:09.712Z,73.90
2023-05-06T08:27:10.522Z,74.44
2023-05-06T08:28:11.334Z,75.45
2023-05-06T08:29:12.175Z,75.25
2023-05-06T08:30:13.010Z,75.96
2023-05-06T08:31:13.854Z,76.29
2023-05-06T08:32:14.659Z,76.60
2023-05-06T08:33:15.487Z,75.69
2023-05-06T08:34:16.350Z,76.23
2023-05-06T08:35:17.151Z,76.74
2023-05-06T08:36:17.988Z,77.14
2023-05-06T08:37:18.824Z,77.48
2023-05-06T08:38:19.647Z,77.69
2023-05-06T08:39:20.485Z,78.09
2023-05-06T08:40:21.444Z,78.53
2023-05-06T08:41:22.028Z,78.64
2023-05-06T08:42:22.838Z,78.74
2023-05-06T08:43:23.635Z,78.94
2023-05-06T08:44:24.473Z,79.08
2023-05-06T08:45:27.357Z,79.28
2023-05-06T08:46:26.025Z,79.28
2023-05-06T08:47:26.869Z,79.49
2023-05-06T08:48:27.676Z,79.59
2023-05-06T08:49:28.484Z,79.90
2023-05-06T08:50:29.361Z,80.60
2023-05-06T08:51:30.160Z,81.21
2023-05-06T08:52:31.001Z,80.84
2023-05-06T08:53:31.820Z,80.64
2023-05-06T08:54:32.663Z,80.54
2023-05-06T08:55:33.473Z,79.72
2023-05-06T08:56:34.350Z,80.13
2023-05-06T08:57:35.142Z,81.09
2023-05-06T08:58:35.967Z,81.39
2023-05-06T08:59:36.809Z,82.10
2023-05-06T09:00:37.616Z,82.31
2023-05-06T09:01:38.516Z,82.20
2023-05-06T09:02:42.181Z,81.79
2023-05-06T09:03:39.994Z,81.59
2023-05-06T09:04:40.796Z,81.79
2023-05-06T09:05:41.621Z,81.84
2023-05-06T09:06:42.464Z,81.84
2023-05-06T09:07:43.288Z,82.24
2023-05-06T09:08:44.108Z,83.46
2023-05-06T09:09:44.972Z,84.17
2023-05-06T09:10:45.815Z,84.48
2023-05-06T09:11:46.782Z,84.38
2023-05-06T09:12:47.546Z,84.88
2023-05-06T09:13:48.369Z,84.78
2023-05-06T09:14:49.185Z,84.99
2023-05-06T09:15:50.036Z,84.88
2023-05-06T09:16:50.914Z,85.09
2023-05-06T09:17:51.761Z,86.31
2023-05-06T09:18:52.549Z,85.70
2023-05-06T09:19:53.387Z,85.60
2023-05-06T09:20:54.213Z,86.21
2023-05-06T09:21:55.034Z,85.90
2023-05-06T09:22:55.864Z,86.31
2023-05-06T09:23:56.711Z,86.41
2023-05-06T09:24:57.533Z,86.41
2023-05-06T09:25:58.346Z,87.02
2023-05-06T09:26:59.264Z,87.32
2023-05-06T09:28:00.076Z,87.84
2023-05-06T09:29:00.881Z,87.43
2023-05-06T09:30:01.831Z,87.53
2023-05-06T09:31:02.685Z,88.34
2023-05-06T09:32:03.470Z,88.20
2023-05-06T09:33:04.369Z,87.59
2023-05-06T09:34:05.194Z,87.08
2023-05-06T09:35:06.022Z,87.08
2023-05-06T09:36:06.866Z,86.98
2023-05-06T09:37:07.673Z,86.57
2023-05-06T09:38:08.532Z,86.27
2023-05-06T09:39:09.356Z,86.27
2023-05-06T09:40:10.205Z,86.16
2023-05-06T09:41:11.085Z,85.72
2023-05-06T09:42:11.918Z,85.41
2023-05-06T09:43:12.735Z,85.21
2023-05-06T09:44:13.571Z,86.13
2023-05-06T09:45:14.402Z,87.14
2023-05-06T09:46:15.259Z,86.83
2023-05-06T09:47:16.097Z,86.59
2023-05-06T09:48:16.941Z,86.19
2023-05-06T09:49:17.728Z,86.08
2023-05-06T09:50:18.614Z,86.19
2023-05-06T09:51:19.382Z,86.29
2023-05-06T09:52:20.249Z,85.78
2023-05-06T09:53:21.060Z,85.07
2023-05-06T09:54:21.877Z,85.17
2023-05-06T09:55:22.714Z,84.87
2023-05-06T09:56:23.542Z,84.83
2023-05-06T09:57:24.468Z,85.03
2023-05-06T09:58:25.218Z,84.22
2023-05-06T09:59:26.048Z,84.01
2023-05-06T10:00:26.949Z,83.91
2023-05-06T10:01:36.037Z,83.87
2023-05-06T10:02:29.614Z,83.06
2023-05-06T10:03:29.206Z,82.76
2023-05-06T10:04:29.790Z,82.66
2023-05-06T10:05:30.400Z,82.96
2023-05-06T10:06:30.793Z,82.96
2023-05-06T10:07:31.655Z,82.45
2023-05-06T10:08:32.465Z,81.95
2023-05-06T10:09:33.288Z,81.81
2023-05-06T10:10:34.109Z,81.40
2023-05-06T10:11:34.943Z,81.20
2023-05-06T10:12:35.995Z,81.81
2023-05-06T10:13:36.297Z,82.11
2023-05-06T10:14:37.115Z,82.31
2023-05-06T10:15:37.945Z,82.28
2023-05-06T10:16:38.830Z,82.58
2023-05-06T10:17:39.630Z,82.17
2023-05-06T10:18:40.410Z,81.77
2023-05-06T10:19:41.238Z,81.83
2023-05-06T10:20:42.110Z,79.50
2023-05-06T10:21:42.977Z,79.10
2023-05-06T10:22:43.762Z,78.49
2023-05-06T10:23:44.592Z,79.00
2023-05-06T10:24:45.408Z,77.48
2023-05-06T10:25:46.335Z,77.58
2023-05-06T10:26:47.100Z,78.33
2023-05-06T10:27:48.081Z,77.92
2023-05-06T10:28:48.930Z,78.42
2023-05-06T10:29:49.770Z,78.83
2023-05-06T10:30:50.588Z,79.64
2023-05-06T10:31:51.475Z,80.15
2023-05-06T10:32:52.344Z,77.92
2023-05-06T10:33:53.260Z,77.92
2023-05-06T10:34:54.050Z,77.11
2023-05-06T10:35:54.872Z,77.31
2023-05-06T10:36:55.704Z,77.61
2023-05-06T10:37:56.544Z,78.33
2023-05-06T10:38:57.403Z,79.03
2023-05-06T10:39:58.222Z,78.53
2023-05-06T10:40:59.050Z,78.22
2023-05-06T10:41:59.860Z,78.73
2023-05-06T10:43:00.704Z,77.82
2023-05-06T10:44:01.514Z,78.22
2023-05-06T10:45:02.376Z,78.73
2023-05-06T10:46:03.243Z,78.83
2023-05-06T10:47:04.095Z,78.53
2023-05-06T10:48:04.975Z,78.73
2023-05-06T10:49:05.775Z,76.50
2023-05-06T10:50:06.610Z,77.21
2023-05-06T10:51:07.429Z,77.11
2023-05-06T10:52:08.267Z,76.40
2023-05-06T10:53:09.084Z,75.99
2023-05-06T10:54:09.917Z,76.50
2023-05-06T10:55:11.022Z,76.50
2023-05-06T10:56:11.430Z,75.76
2023-05-06T10:57:12.257Z,75.15
2023-05-06T10:58:13.112Z,75.55
2023-05-06T10:59:13.930Z,75.96
2023-05-06T11:00:14.765Z,76.26
2023-05-06T11:01:15.618Z,77.28
2023-05-06T11:02:16.483Z,76.93
2023-05-06T11:03:17.375Z,75.11
2023-05-06T11:04:18.198Z,74.40
2023-05-06T11:05:19.026Z,74.60
2023-05-06T11:06:19.873Z,73.86
2023-05-06T11:07:20.680Z,73.25
2023-05-06T11:08:21.516Z,71.06
2023-05-06T11:09:22.348Z,71.88
2023-05-06T11:10:23.172Z,72.99
2023-05-06T11:11:23.984Z,73.09
2023-05-06T11:12:24.837Z,73.80
2023-05-06T11:13:25.968Z,74.40
2023-05-06T11:14:26.451Z,74.81
2023-05-06T11:15:27.284Z,75.01
2023-05-06T11:16:28.144Z,74.40
2023-05-06T11:17:29.022Z,74.81
2023-05-06T11:18:29.839Z,72.99
2023-05-06T11:19:30.651Z,73.59
2023-05-06T11:20:31.493Z,73.80
2023-05-06T11:21:32.294Z,74.71
2023-05-06T11:22:33.130Z,74.20
2023-05-06T11:23:33.950Z,74.77
2023-05-06T11:24:34.788Z,73.96
2023-05-06T11:25:35.639Z,74.27
2023-05-06T11:26:36.486Z,75.07
2023-05-06T11:27:37.306Z,74.87
2023-05-06T11:28:38.154Z,74.57
2023-05-06T11:29:38.991Z,74.43
2023-05-06T11:30:39.841Z,74.63
2023-05-06T11:31:40.662Z,74.94
2023-05-06T11:32:41.500Z,75.24
2023-05-06T11:33:42.312Z,75.75
2023-05-06T11:34:43.143Z,75.21
2023-05-06T11:35:43.973Z,74.70
2023-05-06T11:36:44.800Z,73.59
2023-05-06T11:37:45.686Z,73.49
2023-05-06T11:38:46.471Z,73.79
2023-05-06T11:39:47.290Z,73.19
2023-05-06T11:40:48.139Z,72.48
2023-05-06T11:41:48.981Z,72.75
2023-05-06T11:42:49.785Z,72.75
2023-05-06T11:43:50.774Z,73.46
2023-05-06T11:44:51.555Z,75.07
2023-05-06T11:45:52.457Z,74.73
2023-05-06T11:46:53.280Z,73.93
2023-05-06T11:47:54.186Z,73.72
2023-05-06T11:48:54.999Z,74.13
2023-05-06T11:49:55.821Z,72.38
2023-05-06T11:50:56.647Z,73.49
2023-05-06T11:51:57.481Z,72.48
2023-05-06T11:52:58.312Z,72.17
2023-05-06T11:53:59.124Z,70.66
2023-05-06T11:54:59.958Z,71.97
2023-05-06T11:56:00.789Z,71.77
2023-05-06T11:57:01.611Z,72.38
2023-05-06T11:58:02.461Z,72.88
2023-05-06T11:59:03.361Z,72.64
2023-05-06T12:00:04.131Z,72.34
2023-05-06T12:01:04.986Z,70.12
2023-05-06T12:02:05.815Z,67.30
2023-05-06T12:03:06.681Z,70.49
2023-05-06T12:04:07.762Z,67.36
2023-05-06T12:05:08.221Z,67.57
2023-05-06T12:06:09.017Z,65.95
2023-05-06T12:07:09.872Z,66.96
2023-05-06T12:08:23.452Z,66.05
2023-05-06T12:09:12.424Z,65.65
2023-05-06T12:10:12.475Z,65.05
2023-05-06T12:11:13.062Z,64.24
2023-05-06T12:12:13.882Z,65.08
2023-05-06T12:13:14.765Z,65.48
2023-05-06T12:14:15.790Z,66.79
2023-05-06T12:15:16.546Z,67.30
2023-05-06T12:16:17.409Z,67.57
2023-05-06T12:17:18.216Z,66.66
2023-05-06T12:18:19.037Z,66.46
2023-05-06T12:19:19.873Z,67.27
2023-05-06T12:20:20.701Z,67.16
2023-05-06T12:21:21.516Z,65.92
2023-05-06T12:22:22.374Z,65.42
2023-05-06T12:23:23.206Z,64.51
2023-05-06T12:24:24.012Z,65.12
2023-05-06T12:25:24.831Z,65.01
2023-05-06T12:26:25.659Z,64.92
2023-05-06T12:27:26.490Z,65.12
2023-05-06T12:28:27.345Z,63.07
2023-05-06T12:29:28.245Z,62.40
2023-05-06T12:30:29.019Z,64.07
2023-05-06T12:31:29.881Z,62.60
2023-05-06T12:32:30.722Z,62.06
2023-05-06T12:33:31.532Z,59.84
2023-05-06T12:34:32.356Z,60.35
2023-05-06T12:35:33.206Z,60.35
2023-05-06T12:36:34.000Z,60.35
2023-05-06T12:37:34.829Z,61.25
2023-05-06T12:38:35.665Z,62.16
2023-05-06T12:39:36.476Z,63.10
2023-05-06T12:40:37.302Z,63.50
2023-05-06T12:41:38.151Z,63.90
2023-05-06T12:42:38.971Z,64.72
2023-05-06T12:43:39.799Z,65.62
2023-05-06T12:44:40.732Z,65.22
2023-05-06T12:45:41.550Z,65.32
2023-05-06T12:46:42.332Z,65.82
2023-05-06T12:47:43.184Z,66.63
2023-05-06T12:48:43.994Z,67.03
2023-05-06T12:49:44.809Z,66.93
2023-05-06T12:50:45.635Z,67.54
2023-05-06T12:51:47.721Z,68.14
2023-05-06T12:52:47.091Z,68.44
2023-05-06T12:53:47.907Z,69.28
2023-05-06T12:54:48.742Z,69.59
2023-05-06T12:55:49.568Z,69.59
2023-05-06T12:56:50.411Z,69.99
2023-05-06T12:57:51.216Z,69.89
2023-05-06T12:58:52.046Z,70.32
2023-05-06T12:59:52.885Z,70.32
2023-05-06T13:00:53.726Z,70.12
2023-05-06T13:01:54.539Z,70.22
2023-05-06T13:02:55.440Z,70.53